VCP4456 KABQ-KLAX
Flight info
| Callsign | VCP4456 |
|---|---|
| Flight time | N/A |
| Altitude | 30000 |
| Route | ADYOS3 ZUN J6 DRK HIPPI GABBL HLYWD1 |
| Aircraft | B753/M-SDE2E3FGHIJ3J4J7RWXY/LB1 |
Departure
| Time | 2026-05-04 20:23 |
|---|---|
| Airport | Albuquerque International Sunport (KABQ) |
Arrival
| Time | N/A |
|---|---|
| Airport | Los Angeles International Airport (KLAX) |
| Time | Latitude | Longitude | Altitude | Speed | Heading |
|---|---|---|---|---|---|
| 2026-05-04 19:56 | 35.04680 | -106.61590 | 5366 ft | 0 kts | 5° |
| 2026-05-04 20:11 | 35.04673 | -106.61591 | 5365 ft | 2 kts | 8° |
| 2026-05-04 20:11 | 35.04659 | -106.61595 | 5365 ft | 2 kts | 22° |
| 2026-05-04 20:12 | 35.04645 | -106.61603 | 5365 ft | 2 kts | 32° |
| 2026-05-04 20:12 | 35.04633 | -106.61613 | 5365 ft | 1 kts | 42° |
| 2026-05-04 20:12 | 35.04623 | -106.61626 | 5365 ft | 2 kts | 52° |
| 2026-05-04 20:12 | 35.04615 | -106.61641 | 5365 ft | 2 kts | 53° |
| 2026-05-04 20:13 | 35.04606 | -106.61655 | 5365 ft | 2 kts | 51° |
| 2026-05-04 20:13 | 35.04601 | -106.61662 | 5365 ft | 0 kts | 51° |
| 2026-05-04 20:15 | 35.04607 | -106.61649 | 5365 ft | 2 kts | 72° |
| 2026-05-04 20:15 | 35.04602 | -106.61616 | 5365 ft | 5 kts | 114° |
| 2026-05-04 20:16 | 35.04581 | -106.61565 | 5365 ft | 7 kts | 116° |
| 2026-05-04 20:16 | 35.04559 | -106.61499 | 5365 ft | 9 kts | 103° |
| 2026-05-04 20:16 | 35.04556 | -106.61414 | 5365 ft | 10 kts | 85° |
| 2026-05-04 20:16 | 35.04576 | -106.61320 | 5365 ft | 12 kts | 77° |
| 2026-05-04 20:17 | 35.04581 | -106.61208 | 5365 ft | 14 kts | 90° |
| 2026-05-04 20:17 | 35.04580 | -106.61081 | 5365 ft | 15 kts | 90° |
| 2026-05-04 20:17 | 35.04579 | -106.60940 | 5365 ft | 17 kts | 90° |
| 2026-05-04 20:17 | 35.04578 | -106.60784 | 5365 ft | 19 kts | 90° |
| 2026-05-04 20:18 | 35.04578 | -106.60687 | 5365 ft | 20 kts | 90° |
| 2026-05-04 20:18 | 35.04577 | -106.60506 | 5365 ft | 21 kts | 90° |
| 2026-05-04 20:18 | 35.04575 | -106.60317 | 5365 ft | 23 kts | 90° |
| 2026-05-04 20:18 | 35.04573 | -106.60115 | 5365 ft | 24 kts | 89° |
| 2026-05-04 20:19 | 35.04580 | -106.59902 | 5365 ft | 25 kts | 84° |
| 2026-05-04 20:19 | 35.04586 | -106.59673 | 5365 ft | 27 kts | 90° |
| 2026-05-04 20:19 | 35.04583 | -106.59432 | 5365 ft | 29 kts | 90° |
| 2026-05-04 20:19 | 35.04582 | -106.59190 | 5365 ft | 28 kts | 90° |
| 2026-05-04 20:20 | 35.04578 | -106.58946 | 5365 ft | 29 kts | 91° |
| 2026-05-04 20:20 | 35.04584 | -106.58701 | 5365 ft | 29 kts | 86° |
| 2026-05-04 20:20 | 35.04581 | -106.58456 | 5365 ft | 28 kts | 90° |
| 2026-05-04 20:20 | 35.04579 | -106.58218 | 5365 ft | 27 kts | 91° |
| 2026-05-04 20:21 | 35.04575 | -106.57986 | 5365 ft | 27 kts | 90° |
| 2026-05-04 20:21 | 35.04572 | -106.57791 | 5365 ft | 17 kts | 90° |
| 2026-05-04 20:21 | 35.04516 | -106.57574 | 5365 ft | 13 kts | 161° |
| 2026-05-04 20:22 | 35.04431 | -106.57574 | 5365 ft | 10 kts | 207° |
| 2026-05-04 20:22 | 35.04408 | -106.57647 | 5365 ft | 12 kts | 267° |
| 2026-05-04 20:22 | 35.04407 | -106.57913 | 5365 ft | 56 kts | 270° |
| 2026-05-04 20:22 | 35.04412 | -106.58612 | 5366 ft | 108 kts | 269° |
| 2026-05-04 20:23 | 35.04419 | -106.59740 | 5366 ft | 157 kts | 269° |
| 2026-05-04 20:23 | 35.04438 | -106.61224 | 5494 ft | 190 kts | 268° |
| 2026-05-04 20:23 | 35.04471 | -106.62879 | 6002 ft | 203 kts | 270° |
| 2026-05-04 20:23 | 35.04538 | -106.64611 | 6656 ft | 207 kts | 269° |
| 2026-05-04 20:24 | 35.04557 | -106.66384 | 7148 ft | 209 kts | 268° |
| 2026-05-04 20:24 | 35.04546 | -106.68167 | 7572 ft | 215 kts | 268° |
| 2026-05-04 20:24 | 35.04505 | -106.70035 | 7839 ft | 230 kts | 267° |
| 2026-05-04 20:24 | 35.04430 | -106.72144 | 7817 ft | 262 kts | 265° |
| 2026-05-04 20:25 | 35.04361 | -106.74397 | 8289 ft | 274 kts | 269° |
| 2026-05-04 20:25 | 35.04376 | -106.76736 | 8984 ft | 277 kts | 269° |
| 2026-05-04 20:25 | 35.04377 | -106.79082 | 9761 ft | 277 kts | 269° |
| 2026-05-04 20:25 | 35.04377 | -106.81414 | 10435 ft | 282 kts | 270° |
| 2026-05-04 20:26 | 35.04449 | -106.83897 | 10610 ft | 305 kts | 272° |
| 2026-05-04 20:26 | 35.04552 | -106.86601 | 10693 ft | 331 kts | 272° |
| 2026-05-04 20:26 | 35.04659 | -106.89547 | 10762 ft | 357 kts | 272° |
| 2026-05-04 20:26 | 35.04758 | -106.92584 | 11532 ft | 360 kts | 270° |
| 2026-05-04 20:27 | 35.04700 | -106.95611 | 12425 ft | 359 kts | 267° |
| 2026-05-04 20:27 | 35.04599 | -106.98669 | 13164 ft | 363 kts | 267° |
| 2026-05-04 20:27 | 35.04507 | -107.01729 | 13969 ft | 364 kts | 268° |
| 2026-05-04 20:27 | 35.04416 | -107.04754 | 14717 ft | 366 kts | 268° |
| 2026-05-04 20:28 | 35.04325 | -107.07811 | 15465 ft | 368 kts | 268° |
| 2026-05-04 20:28 | 35.04233 | -107.10869 | 16192 ft | 370 kts | 267° |
| 2026-05-04 20:28 | 35.04142 | -107.13959 | 16907 ft | 372 kts | 267° |
| 2026-05-04 20:28 | 35.04046 | -107.17114 | 17619 ft | 374 kts | 267° |
| 2026-05-04 20:29 | 35.03949 | -107.20298 | 18322 ft | 376 kts | 267° |
| 2026-05-04 20:29 | 35.03852 | -107.23475 | 19020 ft | 377 kts | 267° |
| 2026-05-04 20:29 | 35.03752 | -107.26696 | 19718 ft | 379 kts | 268° |
| 2026-05-04 20:29 | 35.03655 | -107.29868 | 20383 ft | 380 kts | 268° |
| 2026-05-04 20:30 | 35.03556 | -107.33119 | 21041 ft | 382 kts | 268° |
| 2026-05-04 20:30 | 35.03457 | -107.36317 | 21665 ft | 384 kts | 268° |
| 2026-05-04 20:30 | 35.03355 | -107.39593 | 22288 ft | 385 kts | 268° |
| 2026-05-04 20:30 | 35.03254 | -107.42823 | 22871 ft | 387 kts | 268° |
| 2026-05-04 20:31 | 35.03150 | -107.46097 | 23458 ft | 388 kts | 268° |
| 2026-05-04 20:31 | 35.03044 | -107.49398 | 24027 ft | 390 kts | 268° |
| 2026-05-04 20:31 | 35.02938 | -107.52705 | 24608 ft | 391 kts | 268° |
| 2026-05-04 20:31 | 35.02832 | -107.55958 | 25181 ft | 392 kts | 268° |
| 2026-05-04 20:32 | 35.02724 | -107.59279 | 25740 ft | 393 kts | 267° |
| 2026-05-04 20:32 | 35.02614 | -107.62601 | 26284 ft | 394 kts | 267° |
| 2026-05-04 20:32 | 35.02502 | -107.65949 | 26811 ft | 395 kts | 266° |
| 2026-05-04 20:32 | 35.02390 | -107.69285 | 27336 ft | 396 kts | 266° |
| 2026-05-04 20:33 | 35.02277 | -107.72616 | 27856 ft | 397 kts | 266° |
| 2026-05-04 20:33 | 35.02163 | -107.75960 | 28348 ft | 398 kts | 266° |
| 2026-05-04 20:33 | 35.02049 | -107.79294 | 28817 ft | 399 kts | 266° |
| 2026-05-04 20:33 | 35.01931 | -107.82681 | 29420 ft | 397 kts | 266° |
| 2026-05-04 20:34 | 35.01817 | -107.85952 | 29993 ft | 394 kts | 266° |
| 2026-05-04 20:34 | 35.01699 | -107.89278 | 30020 ft | 394 kts | 266° |
| 2026-05-04 20:34 | 35.01466 | -107.95813 | 30016 ft | 388 kts | 266° |